Bow Clipper — LAUU4 — position and weather

sailwx.info

Track history (hours):
 
Tides and Currents Weather Stations Pressure Air Temp Water Temp Dewpoint Dewpoint Depression Visibility Wind Speed Wind Dir Waves Ship Positions

Bow Clipper

Last reported at 2014-Sep-20 17:07 UTC. Time now 2014-Sep-22 12:13 UTC.
Position N 36°04' W 005°20'.

Length 188 m; draft 6.1 m.

Type: Ship (hazmat cat B). MMSI: 258946991.

Date/timePositionNaut miles runAvg speedWind from/ knotsBaromVisibWave heightAir tempDewpointWater temp
2014-Sep-20 17:07N 36°04' W 005°20'22312.7
2014-Sep-19 23:32N 36°38' W 000°46'1713.2
2014-Sep-19 22:14N 36°41' W 000°25'913.5
2014-Sep-19 21:33N 36°42' W 000°14'1313.4
2014-Sep-19 20:33N 36°44' E 000°03'1313.2
2014-Sep-19 19:32N 36°46' E 000°19'1313.3
2014-Sep-19 18:33N 36°48' E 000°36'1313.3
2014-Sep-19 17:33N 36°51' E 000°52'1312.9
2014-Sep-19 16:34N 36°53' E 001°08'1412.5
2014-Sep-19 15:25N 36°55' E 001°25'1112.6
2014-Sep-19 14:33N 36°57' E 001°39'2813.2
2014-Sep-19 12:25N 37°01' E 002°14'23713.3
2014-Sep-18 18:31N 37°29' E 007°10'4113.1
2014-Sep-18 15:24N 37°34' E 008°01'1112.9
2014-Sep-18 14:33N 37°35' E 008°15'1313.2
2014-Sep-18 13:32N 37°36' E 008°31'1313.1
2014-Sep-18 12:31N 37°38' E 008°48'1313.0
2014-Sep-18 11:32N 37°39' E 009°04'1412.9
2014-Sep-18 10:26N 37°39' E 009°22'1112.5
2014-Sep-18 09:33N 37°39' E 009°36'2612.3
2014-Sep-18 07:26N 37°39' E 010°09'2412.6
2014-Sep-18 05:30N 37°34' E 010°39'12713.5
2014-Sep-17 20:04N 36°48' E 013°08'713.5
2014-Sep-17 19:32N 36°46' E 013°17'1312.9
2014-Sep-17 18:32N 36°42' E 013°32'1312.7
2014-Sep-17 17:32N 36°38' E 013°47'1212.7
2014-Sep-17 16:33N 36°34' E 014°02'1312.8
2014-Sep-17 15:33N 36°30' E 014°17'1413.5
2014-Sep-17 14:33N 36°26' E 014°33'  
Track history (hours):
 
Tides and Currents Weather Stations Pressure Air Temp Water Temp Dewpoint Dewpoint Depression Visibility Wind Speed Wind Dir Waves Ship Positions

Bow Clipper

Last reported at 2014-Sep-20 17:07 UTC. Time now 2014-Sep-22 12:13 UTC.
Position N 36°04' W 005°20'.

Length 188 m; draft 6.1 m.

Type: Ship (hazmat cat B). MMSI: 258946991.

Date/timePositionNaut miles runAvg speedWind from/ knotsBaromVisibWave heightAir tempDewpointWater temp
2014-Sep-20 17:07N 36°04' W 005°20'22312.7
2014-Sep-19 23:32N 36°38' W 000°46'1713.2
2014-Sep-19 22:14N 36°41' W 000°25'913.5
2014-Sep-19 21:33N 36°42' W 000°14'1313.4
2014-Sep-19 20:33N 36°44' E 000°03'1313.2
2014-Sep-19 19:32N 36°46' E 000°19'1313.3
2014-Sep-19 18:33N 36°48' E 000°36'1313.3
2014-Sep-19 17:33N 36°51' E 000°52'1312.9
2014-Sep-19 16:34N 36°53' E 001°08'1412.5
2014-Sep-19 15:25N 36°55' E 001°25'1112.6
2014-Sep-19 14:33N 36°57' E 001°39'2813.2
2014-Sep-19 12:25N 37°01' E 002°14'23713.3
2014-Sep-18 18:31N 37°29' E 007°10'4113.1
2014-Sep-18 15:24N 37°34' E 008°01'1112.9
2014-Sep-18 14:33N 37°35' E 008°15'1313.2
2014-Sep-18 13:32N 37°36' E 008°31'1313.1
2014-Sep-18 12:31N 37°38' E 008°48'1313.0
2014-Sep-18 11:32N 37°39' E 009°04'1412.9
2014-Sep-18 10:26N 37°39' E 009°22'1112.5
2014-Sep-18 09:33N 37°39' E 009°36'2612.3
2014-Sep-18 07:26N 37°39' E 010°09'2412.6
2014-Sep-18 05:30N 37°34' E 010°39'12713.5
2014-Sep-17 20:04N 36°48' E 013°08'713.5
2014-Sep-17 19:32N 36°46' E 013°17'1312.9
2014-Sep-17 18:32N 36°42' E 013°32'1312.7
2014-Sep-17 17:32N 36°38' E 013°47'1212.7
2014-Sep-17 16:33N 36°34' E 014°02'1312.8
2014-Sep-17 15:33N 36°30' E 014°17'1413.5
2014-Sep-17 14:33N 36°26' E 014°33'  

Dump ship's entire track history